^^
Station Historical Data
Daily Summary for June 3, 2017 Units:  Both    English   Metric
« Previous Day
Next Day »
Daily Weekly Monthly Yearly Custom
  High: Low: Average:
Temperature: 71.4 °F /  21.9 °C 40.8 °F /  4.9 °C 55.2 °F /  12.9 °C
Dew Point: 32.2 °F /  0.1 °C 27.3 °F /  -2.6 °C 29.8 °F /  -1.2 °C
Humidity: 64% 22% 41%
Wind Speed: 6.0mph /  9.7km/h - 0.5mph /  0.8km/h
Wind Gust: 10.0mph /  16.1km/h - -
Wind- - SSW
Pressure: 30.42 in /  1030 hPa 30.30 in /  1026 hPa -
Precipitation: 0.00 in /  0 mm    
Historical Graphs
 
 
Tabular Data for June 3, 2017
Time Temperature Dew Point Pressure Wind Wind Speed Wind Gust Humidity Rainfall Rate (Hourly) solar Conditions
00:00 47.3 °F /  8.5 °C 30.6 °F /  -0.8 °C 30.40in /  1029.3hPa Calm     52% 0.00in /  0mm 0.0 W/m2
00:07 46.8 °F /  8.2 °C 30.0 °F /  -1.1 °C 30.40in /  1029.3hPa Calm   1.0mph /  1.6km/h 52% 0.00in /  0mm 0.0 W/m2
00:13 46.6 °F /  8.1 °C 30.4 °F /  -0.9 °C 30.40in /  1029.3hPa Calm     53% 0.00in /  0mm 0.0 W/m2
00:19 46.4 °F /  8 °C 30.2 °F /  -1 °C 30.40in /  1029.3hPa Calm   1.0mph /  1.6km/h 53% 0.00in /  0mm 0.0 W/m2
00:25 46.2 °F /  7.9 °C 30.0 °F /  -1.1 °C 30.40in /  1029.3hPa Calm     53% 0.00in /  0mm 0.0 W/m2
00:31 46.2 °F /  7.9 °C 30.6 °F /  -0.8 °C 30.40in /  1029.3hPa Calm     54% 0.00in /  0mm 0.0 W/m2
00:37 46.0 °F /  7.8 °C 30.4 °F /  -0.9 °C 30.40in /  1029.3hPa Calm     54% 0.00in /  0mm 0.0 W/m2
00:44 46.0 °F /  7.8 °C 30.4 °F /  -0.9 °C 30.40in /  1029.3hPa Calm     54% 0.00in /  0mm 0.0 W/m2
00:50 45.9 °F /  7.7 °C 30.2 °F /  -1 °C 30.40in /  1029.3hPa Calm     54% 0.00in /  0mm 0.0 W/m2
00:56 45.7 °F /  7.6 °C 30.4 °F /  -0.9 °C 30.40in /  1029.3hPa Calm     55% 0.00in /  0mm 0.0 W/m2
01:02 45.3 °F /  7.4 °C 30.0 °F /  -1.1 °C 30.40in /  1029.3hPa Calm     55% 0.00in /  0mm 0.0 W/m2
01:08 45.0 °F /  7.2 °C 30.2 °F /  -1 °C 30.39in /  1029hPa Calm     56% 0.00in /  0mm 0.0 W/m2
01:14 45.0 °F /  7.2 °C 30.2 °F /  -1 °C 30.39in /  1029hPa Calm   1.0mph /  1.6km/h 56% 0.00in /  0mm 0.0 W/m2
01:20 45.1 °F /  7.3 °C 30.4 °F /  -0.9 °C 30.39in /  1029hPa Calm     56% 0.00in /  0mm 0.0 W/m2
01:26 45.1 °F /  7.3 °C 30.4 °F /  -0.9 °C 30.39in /  1029hPa Calm   1.0mph /  1.6km/h 56% 0.00in /  0mm 0.0 W/m2
01:33 45.1 °F /  7.3 °C 30.4 °F /  -0.9 °C 30.39in /  1029hPa Calm   1.0mph /  1.6km/h 56% 0.00in /  0mm 0.0 W/m2
01:39 45.0 °F /  7.2 °C 30.2 °F /  -1 °C 30.39in /  1029hPa Calm   1.0mph /  1.6km/h 56% 0.00in /  0mm 0.0 W/m2
01:45 45.0 °F /  7.2 °C 30.2 °F /  -1 °C 30.39in /  1029hPa Calm     56% 0.00in /  0mm 0.0 W/m2
01:51 45.1 °F /  7.3 °C 30.4 °F /  -0.9 °C 30.39in /  1029hPa Calm     56% 0.00in /  0mm 0.0 W/m2
01:57 45.0 °F /  7.2 °C 30.6 °F /  -0.8 °C 30.38in /  1028.7hPa Calm     57% 0.00in /  0mm 0.0 W/m2
02:03 44.8 °F /  7.1 °C 30.0 °F /  -1.1 °C 30.38in /  1028.7hPa Calm     56% 0.00in /  0mm 0.0 W/m2
02:10 44.4 °F /  6.9 °C 30.2 °F /  -1 °C 30.38in /  1028.7hPa ESE 0.9mph /  1.4km/h 1.0mph /  1.6km/h 57% 0.00in /  0mm 0.0 W/m2
02:16 44.2 °F /  6.8 °C 30.0 °F /  -1.1 °C 30.38in /  1028.7hPa Calm   1.0mph /  1.6km/h 57% 0.00in /  0mm 0.0 W/m2
02:22 44.1 °F /  6.7 °C 30.2 °F /  -1 °C 30.38in /  1028.7hPa Calm     58% 0.00in /  0mm 0.0 W/m2
02:28 44.1 °F /  6.7 °C 30.2 °F /  -1 °C 30.37in /  1028.3hPa ESE 2.0mph /  3.2km/h 3.0mph /  4.8km/h 58% 0.00in /  0mm 0.0 W/m2
02:34 44.1 °F /  6.7 °C 30.2 °F /  -1 °C 30.37in /  1028.3hPa Calm   2.0mph /  3.2km/h 58% 0.00in /  0mm 0.0 W/m2
02:40 44.1 °F /  6.7 °C 30.2 °F /  -1 °C 30.37in /  1028.3hPa Calm     58% 0.00in /  0mm 0.0 W/m2
02:46 43.7 °F /  6.5 °C 29.8 °F /  -1.2 °C 30.37in /  1028.3hPa Calm     58% 0.00in /  0mm 0.0 W/m2
02:53 43.3 °F /  6.3 °C 30.0 °F /  -1.1 °C 30.37in /  1028.3hPa Calm     59% 0.00in /  0mm 0.0 W/m2
02:59 43.2 °F /  6.2 °C 30.2 °F /  -1 °C 30.37in /  1028.3hPa Calm     60% 0.00in /  0mm 0.0 W/m2
03:05 42.6 °F /  5.9 °C 29.7 °F /  -1.3 °C 30.37in /  1028.3hPa Calm     60% 0.00in /  0mm 0.0 W/m2
03:11 42.4 °F /  5.8 °C 30.0 °F /  -1.1 °C 30.37in /  1028.3hPa Calm     61% 0.00in /  0mm 0.0 W/m2
03:17 42.1 °F /  5.6 °C 29.7 °F /  -1.3 °C 30.37in /  1028.3hPa Calm     61% 0.00in /  0mm 0.0 W/m2
03:23 41.7 °F /  5.4 °C 29.7 °F /  -1.3 °C 30.37in /  1028.3hPa Calm     62% 0.00in /  0mm 0.0 W/m2
03:30 41.5 °F /  5.3 °C 29.5 °F /  -1.4 °C 30.37in /  1028.3hPa Calm     62% 0.00in /  0mm 0.0 W/m2
03:36 41.4 °F /  5.2 °C 29.3 °F /  -1.5 °C 30.37in /  1028.3hPa Calm     62% 0.00in /  0mm 0.0 W/m2
03:42 41.4 °F /  5.2 °C 29.7 °F /  -1.3 °C 30.37in /  1028.3hPa Calm     63% 0.00in /  0mm 0.0 W/m2
03:48 41.2 °F /  5.1 °C 29.5 °F /  -1.4 °C 30.37in /  1028.3hPa Calm     63% 0.00in /  0mm 0.0 W/m2
03:54 41.0 °F /  5 °C 29.3 °F /  -1.5 °C 30.37in /  1028.3hPa Calm     63% 0.00in /  0mm 0.0 W/m2
04:02 40.8 °F /  4.9 °C 29.7 °F /  -1.3 °C 30.37in /  1028.3hPa Calm     64% 0.00in /  0mm 0.0 W/m2
04:08 40.8 °F /  4.9 °C 29.1 °F /  -1.6 °C 30.37in /  1028.3hPa Calm     63% 0.00in /  0mm 0.0 W/m2
04:15 40.8 °F /  4.9 °C 29.7 °F /  -1.3 °C 30.36in /  1028hPa Calm     64% 0.00in /  0mm 0.0 W/m2
04:21 41.0 °F /  5 °C 29.3 °F /  -1.5 °C 30.37in /  1028.3hPa Calm     63% 0.00in /  0mm 0.0 W/m2
04:27 41.0 °F /  5 °C 29.3 °F /  -1.5 °C 30.37in /  1028.3hPa Calm     63% 0.00in /  0mm 0.0 W/m2
04:33 41.0 °F /  5 °C 29.3 °F /  -1.5 °C 30.37in /  1028.3hPa Calm     63% 0.00in /  0mm 0.0 W/m2
04:39 41.2 °F /  5.1 °C 29.1 °F /  -1.6 °C 30.37in /  1028.3hPa ESE 4.0mph /  6.4km/h 4.0mph /  6.4km/h 62% 0.00in /  0mm 0.0 W/m2
04:45 42.1 °F /  5.6 °C 29.7 °F /  -1.3 °C 30.37in /  1028.3hPa Calm     61% 0.00in /  0mm 0.0 W/m2
04:51 42.3 °F /  5.7 °C 29.8 °F /  -1.2 °C 30.36in /  1028hPa Calm     61% 0.00in /  0mm 0.0 W/m2
04:58 42.3 °F /  5.7 °C 29.3 °F /  -1.5 °C 30.37in /  1028.3hPa Calm     60% 0.00in /  0mm 0.0 W/m2
05:04 42.4 °F /  5.8 °C 29.5 °F /  -1.4 °C 30.37in /  1028.3hPa Calm     60% 0.00in /  0mm 0.0 W/m2
05:10 42.4 °F /  5.8 °C 29.1 °F /  -1.6 °C 30.37in /  1028.3hPa Calm     59% 0.00in /  0mm 0.0 W/m2
05:16 42.4 °F /  5.8 °C 29.1 °F /  -1.6 °C 30.37in /  1028.3hPa Calm     59% 0.00in /  0mm 0.0 W/m2
05:22 42.6 °F /  5.9 °C 28.9 °F /  -1.7 °C 30.38in /  1028.7hPa Calm     58% 0.00in /  0mm 0.0 W/m2
05:28 42.6 °F /  5.9 °C 28.9 °F /  -1.7 °C 30.37in /  1028.3hPa Calm     58% 0.00in /  0mm 0.0 W/m2
05:34 42.8 °F /  6 °C 29.1 °F /  -1.6 °C 30.38in /  1028.7hPa Calm     58% 0.00in /  0mm 0.0 W/m2
05:41 42.8 °F /  6 °C 29.1 °F /  -1.6 °C 30.38in /  1028.7hPa Calm   4.0mph /  6.4km/h 58% 0.00in /  0mm 0.0 W/m2
05:47 42.6 °F /  5.9 °C 28.9 °F /  -1.7 °C 30.37in /  1028.3hPa Calm   3.0mph /  4.8km/h 58% 0.00in /  0mm 0.0 W/m2
05:53 42.6 °F /  5.9 °C 28.9 °F /  -1.7 °C 30.37in /  1028.3hPa ENE 0.9mph /  1.4km/h 1.0mph /  1.6km/h 58% 0.00in /  0mm 0.0 W/m2
05:59 42.6 °F /  5.9 °C 28.9 °F /  -1.7 °C 30.37in /  1028.3hPa Calm     58% 0.00in /  0mm 0.0 W/m2
06:05 42.6 °F /  5.9 °C 28.9 °F /  -1.7 °C 30.37in /  1028.3hPa Calm     58% 0.00in /  0mm 0.0 W/m2
06:11 42.4 °F /  5.8 °C 29.1 °F /  -1.6 °C 30.38in /  1028.7hPa Calm     59% 0.00in /  0mm 0.0 W/m2
06:17 42.1 °F /  5.6 °C 28.8 °F /  -1.8 °C 30.38in /  1028.7hPa Calm   1.0mph /  1.6km/h 59% 0.00in /  0mm 0.0 W/m2
06:23 42.1 °F /  5.6 °C 28.8 °F /  -1.8 °C 30.38in /  1028.7hPa Calm     59% 0.00in /  0mm 0.0 W/m2
06:29 42.1 °F /  5.6 °C 28.8 °F /  -1.8 °C 30.38in /  1028.7hPa Calm   1.0mph /  1.6km/h 59% 0.00in /  0mm 5.0 W/m2
06:35 41.7 °F /  5.4 °C 28.4 °F /  -2 °C 30.38in /  1028.7hPa Calm     59% 0.00in /  0mm 7.0 W/m2
06:41 41.7 °F /  5.4 °C 28.4 °F /  -2 °C 30.38in /  1028.7hPa Calm     59% 0.00in /  0mm 9.0 W/m2
06:47 41.7 °F /  5.4 °C 28.4 °F /  -2 °C 30.38in /  1028.7hPa Calm   1.0mph /  1.6km/h 59% 0.00in /  0mm 11.0 W/m2
06:53 42.1 °F /  5.6 °C 28.8 °F /  -1.8 °C 30.39in /  1029hPa Calm     59% 0.00in /  0mm 12.0 W/m2
06:59 42.1 °F /  5.6 °C 28.8 °F /  -1.8 °C 30.39in /  1029hPa Calm   1.0mph /  1.6km/h 59% 0.00in /  0mm 12.0 W/m2
07:05 42.3 °F /  5.7 °C 28.9 °F /  -1.7 °C 30.39in /  1029hPa Calm   2.0mph /  3.2km/h 59% 0.00in /  0mm 14.0 W/m2
07:11 42.4 °F /  5.8 °C 29.1 °F /  -1.6 °C 30.39in /  1029hPa Calm   1.0mph /  1.6km/h 59% 0.00in /  0mm 16.0 W/m2
07:17 42.8 °F /  6 °C 29.1 °F /  -1.6 °C 30.39in /  1029hPa Calm   3.0mph /  4.8km/h 58% 0.00in /  0mm 16.0 W/m2
07:23 43.2 °F /  6.2 °C 29.3 °F /  -1.5 °C 30.40in /  1029.3hPa Calm   2.0mph /  3.2km/h 58% 0.00in /  0mm 18.0 W/m2
07:30 43.9 °F /  6.6 °C 29.7 °F /  -1.3 °C 30.40in /  1029.3hPa Calm   4.0mph /  6.4km/h 57% 0.00in /  0mm 19.0 W/m2
07:35 44.4 °F /  6.9 °C 29.7 °F /  -1.3 °C 30.40in /  1029.3hPa Calm     56% 0.00in /  0mm 21.0 W/m2
07:41 45.0 °F /  7.2 °C 30.6 °F /  -0.8 °C 30.40in /  1029.3hPa Calm   1.0mph /  1.6km/h 57% 0.00in /  0mm 21.0 W/m2
07:47 45.9 °F /  7.7 °C 31.1 °F /  -0.5 °C 30.40in /  1029.3hPa Calm     56% 0.00in /  0mm 23.0 W/m2
07:53 46.8 °F /  8.2 °C 31.8 °F /  -0.1 °C 30.40in /  1029.3hPa Calm     56% 0.00in /  0mm 25.0 W/m2
07:59 47.8 °F /  8.8 °C 32.0 °F /  0 °C 30.41in /  1029.7hPa Calm     54% 0.00in /  0mm 251.0 W/m2
08:05 49.6 °F /  9.8 °C 31.8 °F /  -0.1 °C 30.40in /  1029.3hPa Calm     50% 0.00in /  0mm 316.0 W/m2
08:11 51.6 °F /  10.9 °C 30.9 °F /  -0.6 °C 30.40in /  1029.3hPa Calm   2.0mph /  3.2km/h 45% 0.00in /  0mm 338.0 W/m2
08:17 54.3 °F /  12.4 °C 31.6 °F /  -0.2 °C 30.41in /  1029.7hPa Calm     42% 0.00in /  0mm 359.0 W/m2
08:23 55.9 °F /  13.3 °C 31.3 °F /  -0.4 °C 30.41in /  1029.7hPa Calm   1.0mph /  1.6km/h 39% 0.00in /  0mm 378.0 W/m2
08:29 57.6 °F /  14.2 °C 30.7 °F /  -0.7 °C 30.41in /  1029.7hPa Calm   1.0mph /  1.6km/h 36% 0.00in /  0mm 399.0 W/m2
08:35 59.4 °F /  15.2 °C 30.2 °F /  -1 °C 30.41in /  1029.7hPa Calm   2.0mph /  3.2km/h 33% 0.00in /  0mm 417.0 W/m2
08:41 60.6 °F /  15.9 °C 29.8 °F /  -1.2 °C 30.41in /  1029.7hPa Calm   1.0mph /  1.6km/h 31% 0.00in /  0mm 434.0 W/m2
08:47 62.1 °F /  16.7 °C 30.2 °F /  -1 °C 30.41in /  1029.7hPa Calm   1.0mph /  1.6km/h 30% 0.00in /  0mm 452.0 W/m2
08:53 63.1 °F /  17.3 °C 29.5 °F /  -1.4 °C 30.42in /  1030hPa Calm   1.0mph /  1.6km/h 28% 0.00in /  0mm 469.0 W/m2
08:59 63.9 °F /  17.7 °C 30.9 °F /  -0.6 °C 30.42in /  1030hPa Calm   1.0mph /  1.6km/h 29% 0.00in /  0mm 485.0 W/m2
09:05 64.4 °F /  18 °C 29.7 °F /  -1.3 °C 30.42in /  1030hPa NNE 0.9mph /  1.4km/h 3.0mph /  4.8km/h 27% 0.00in /  0mm 501.0 W/m2
09:11 64.8 °F /  18.2 °C 29.1 °F /  -1.6 °C 30.42in /  1030hPa NNW 0.9mph /  1.4km/h 4.0mph /  6.4km/h 26% 0.00in /  0mm 519.0 W/m2
09:17 64.9 °F /  18.3 °C 30.2 °F /  -1 °C 30.42in /  1030hPa NNW 0.9mph /  1.4km/h 1.0mph /  1.6km/h 27% 0.00in /  0mm 531.0 W/m2
09:23 65.1 °F /  18.4 °C 30.4 °F /  -0.9 °C 30.42in /  1030hPa Calm   1.0mph /  1.6km/h 27% 0.00in /  0mm 547.0 W/m2
09:29 65.7 °F /  18.7 °C 30.7 °F /  -0.7 °C 30.41in /  1029.7hPa Calm   2.0mph /  3.2km/h 27% 0.00in /  0mm 559.0 W/m2
09:35 66.0 °F /  18.9 °C 30.2 °F /  -1 °C 30.41in /  1029.7hPa WNW 0.9mph /  1.4km/h 4.0mph /  6.4km/h 26% 0.00in /  0mm 573.0 W/m2
09:41 66.0 °F /  18.9 °C 30.2 °F /  -1 °C 30.41in /  1029.7hPa NW 0.9mph /  1.4km/h 7.0mph /  11.3km/h 26% 0.00in /  0mm 585.0 W/m2
09:47 66.0 °F /  18.9 °C 30.2 °F /  -1 °C 30.41in /  1029.7hPa Calm   3.0mph /  4.8km/h 26% 0.00in /  0mm 599.0 W/m2
09:53 66.6 °F /  19.2 °C 29.7 °F /  -1.3 °C 30.41in /  1029.7hPa NNW 6.0mph /  9.7km/h 7.0mph /  11.3km/h 25% 0.00in /  0mm 610.0 W/m2
09:59 66.4 °F /  19.1 °C 29.5 °F /  -1.4 °C 30.41in /  1029.7hPa North 4.9mph /  7.9km/h 6.0mph /  9.7km/h 25% 0.00in /  0mm 621.0 W/m2
10:05 66.0 °F /  18.9 °C 30.2 °F /  -1 °C 30.41in /  1029.7hPa NNE 2.0mph /  3.2km/h 8.0mph /  12.9km/h 26% 0.00in /  0mm 631.0 W/m2
10:11 66.4 °F /  19.1 °C 30.4 °F /  -0.9 °C 30.41in /  1029.7hPa Calm   4.0mph /  6.4km/h 26% 0.00in /  0mm 638.0 W/m2
10:17 66.7 °F /  19.3 °C 30.7 °F /  -0.7 °C 30.40in /  1029.3hPa NNW 2.9mph /  4.7km/h 8.0mph /  12.9km/h 26% 0.00in /  0mm 650.0 W/m2
10:23 66.9 °F /  19.4 °C 30.0 °F /  -1.1 °C 30.40in /  1029.3hPa NNW 6.0mph /  9.7km/h 7.0mph /  11.3km/h 25% 0.00in /  0mm 657.0 W/m2
10:29 67.3 °F /  19.6 °C 30.2 °F /  -1 °C 30.40in /  1029.3hPa NNW 0.9mph /  1.4km/h 6.0mph /  9.7km/h 25% 0.00in /  0mm 664.0 W/m2
10:35 67.6 °F /  19.8 °C 30.6 °F /  -0.8 °C 30.40in /  1029.3hPa NNE 0.9mph /  1.4km/h 5.0mph /  8km/h 25% 0.00in /  0mm 673.0 W/m2
10:41 68.0 °F /  20 °C 30.9 °F /  -0.6 °C 30.40in /  1029.3hPa West 0.9mph /  1.4km/h 7.0mph /  11.3km/h 25% 0.00in /  0mm 680.0 W/m2
10:47 68.2 °F /  20.1 °C 31.1 °F /  -0.5 °C 30.40in /  1029.3hPa NNE 6.0mph /  9.7km/h 7.0mph /  11.3km/h 25% 0.00in /  0mm 689.0 W/m2
10:53 68.2 °F /  20.1 °C 30.0 °F /  -1.1 °C 30.39in /  1029hPa West 0.9mph /  1.4km/h 9.0mph /  14.5km/h 24% 0.00in /  0mm 693.0 W/m2
10:59 68.4 °F /  20.2 °C 31.1 °F /  -0.5 °C 30.39in /  1029hPa Calm   4.0mph /  6.4km/h 25% 0.00in /  0mm 696.0 W/m2
11:05 68.5 °F /  20.3 °C 31.3 °F /  -0.4 °C 30.39in /  1029hPa Calm   2.0mph /  3.2km/h 25% 0.00in /  0mm 701.0 W/m2
11:11 68.7 °F /  20.4 °C 30.4 °F /  -0.9 °C 30.39in /  1029hPa Calm   6.0mph /  9.7km/h 24% 0.00in /  0mm 707.0 W/m2
11:17 68.5 °F /  20.3 °C 30.4 °F /  -0.9 °C 30.38in /  1028.7hPa NNW 4.0mph /  6.4km/h 8.0mph /  12.9km/h 24% 0.00in /  0mm 714.0 W/m2
11:23 68.5 °F /  20.3 °C 31.3 °F /  -0.4 °C 30.38in /  1028.7hPa WNW 4.0mph /  6.4km/h 10.0mph /  16.1km/h 25% 0.00in /  0mm 710.0 W/m2
11:29 69.1 °F /  20.6 °C 31.8 °F /  -0.1 °C 30.38in /  1028.7hPa Calm   3.0mph /  4.8km/h 25% 0.00in /  0mm 710.0 W/m2
11:35 68.9 °F /  20.5 °C 30.6 °F /  -0.8 °C 30.37in /  1028.3hPa West 2.9mph /  4.7km/h 8.0mph /  12.9km/h 24% 0.00in /  0mm 712.0 W/m2
11:41 68.7 °F /  20.4 °C 30.4 °F /  -0.9 °C 30.37in /  1028.3hPa Calm   4.0mph /  6.4km/h 24% 0.00in /  0mm 712.0 W/m2
11:47 69.1 °F /  20.6 °C 31.8 °F /  -0.1 °C 30.37in /  1028.3hPa West 0.9mph /  1.4km/h 7.0mph /  11.3km/h 25% 0.00in /  0mm 712.0 W/m2
11:53 69.3 °F /  20.7 °C 30.9 °F /  -0.6 °C 30.36in /  1028hPa SSW 2.0mph /  3.2km/h 6.0mph /  9.7km/h 24% 0.00in /  0mm 710.0 W/m2
11:59 69.4 °F /  20.8 °C 31.1 °F /  -0.5 °C 30.36in /  1028hPa North 2.0mph /  3.2km/h 9.0mph /  14.5km/h 24% 0.00in /  0mm 710.0 W/m2
12:05 69.6 °F /  20.9 °C 31.3 °F /  -0.4 °C 30.36in /  1028hPa WNW 0.9mph /  1.4km/h 3.0mph /  4.8km/h 24% 0.00in /  0mm 708.0 W/m2
12:11 69.6 °F /  20.9 °C 32.2 °F /  0.1 °C 30.36in /  1028hPa WNW 0.9mph /  1.4km/h 2.0mph /  3.2km/h 25% 0.00in /  0mm 703.0 W/m2
12:17 69.8 °F /  21 °C 31.5 °F /  -0.3 °C 30.35in /  1027.7hPa NNE 2.0mph /  3.2km/h 8.0mph /  12.9km/h 24% 0.00in /  0mm 707.0 W/m2
12:23 69.8 °F /  21 °C 31.5 °F /  -0.3 °C 30.35in /  1027.7hPa NNE 2.0mph /  3.2km/h 2.0mph /  3.2km/h 24% 0.00in /  0mm 700.0 W/m2
12:29 70.0 °F /  21.1 °C 31.5 °F /  -0.3 °C 30.35in /  1027.7hPa North 4.0mph /  6.4km/h 5.0mph /  8km/h 24% 0.00in /  0mm 698.0 W/m2
12:35 70.3 °F /  21.3 °C 30.7 °F /  -0.7 °C 30.34in /  1027.3hPa Calm   2.0mph /  3.2km/h 23% 0.00in /  0mm 691.0 W/m2
12:41 70.5 °F /  21.4 °C 32.0 °F /  0 °C 30.34in /  1027.3hPa Calm   5.0mph /  8km/h 24% 0.00in /  0mm 684.0 W/m2
12:47 70.9 °F /  21.6 °C 31.3 °F /  -0.4 °C 30.33in /  1027hPa NNW 0.9mph /  1.4km/h 2.0mph /  3.2km/h 23% 0.00in /  0mm 679.0 W/m2
12:53 70.9 °F /  21.6 °C 31.3 °F /  -0.4 °C 30.33in /  1027hPa West 2.0mph /  3.2km/h 5.0mph /  8km/h 23% 0.00in /  0mm 673.0 W/m2
12:59 70.9 °F /  21.6 °C 31.3 °F /  -0.4 °C 30.33in /  1027hPa Calm   6.0mph /  9.7km/h 23% 0.00in /  0mm 666.0 W/m2
13:05 71.1 °F /  21.7 °C 31.5 °F /  -0.3 °C 30.33in /  1027hPa Calm   3.0mph /  4.8km/h 23% 0.00in /  0mm 654.0 W/m2
13:11 71.1 °F /  21.7 °C 31.5 °F /  -0.3 °C 30.33in /  1027hPa NNE 0.9mph /  1.4km/h 6.0mph /  9.7km/h 23% 0.00in /  0mm 649.0 W/m2
13:17 70.9 °F /  21.6 °C 30.2 °F /  -1 °C 30.32in /  1026.6hPa North 2.0mph /  3.2km/h 6.0mph /  9.7km/h 22% 0.00in /  0mm 643.0 W/m2
13:24 70.9 °F /  21.6 °C 30.2 °F /  -1 °C 30.32in /  1026.6hPa NNW 2.9mph /  4.7km/h 7.0mph /  11.3km/h 22% 0.00in /  0mm 631.0 W/m2
13:28 70.9 °F /  21.6 °C 30.2 °F /  -1 °C 30.32in /  1026.6hPa NW 4.0mph /  6.4km/h 8.0mph /  12.9km/h 22% 0.00in /  0mm 624.0 W/m2
13:34 70.5 °F /  21.4 °C 29.8 °F /  -1.2 °C 30.32in /  1026.6hPa NE 2.0mph /  3.2km/h 6.0mph /  9.7km/h 22% 0.00in /  0mm 613.0 W/m2
13:40 70.7 °F /  21.5 °C 31.1 °F /  -0.5 °C 30.31in /  1026.3hPa NNW 2.0mph /  3.2km/h 5.0mph /  8km/h 23% 0.00in /  0mm 599.0 W/m2
13:46 70.9 °F /  21.6 °C 31.3 °F /  -0.4 °C 30.31in /  1026.3hPa NNW 4.9mph /  7.9km/h 5.0mph /  8km/h 23% 0.00in /  0mm 587.0 W/m2
13:52 70.7 °F /  21.5 °C 32.2 °F /  0.1 °C 30.31in /  1026.3hPa Calm   4.0mph /  6.4km/h 24% 0.00in /  0mm 571.0 W/m2
13:58 71.1 °F /  21.7 °C 31.5 °F /  -0.3 °C 30.31in /  1026.3hPa Calm   3.0mph /  4.8km/h 23% 0.00in /  0mm 559.0 W/m2
14:04 71.1 °F /  21.7 °C 31.5 °F /  -0.3 °C 30.31in /  1026.3hPa Calm   1.0mph /  1.6km/h 23% 0.00in /  0mm 547.0 W/m2
14:10 71.1 °F /  21.7 °C 31.5 °F /  -0.3 °C 30.30in /  1026hPa Calm   1.0mph /  1.6km/h 23% 0.00in /  0mm 534.0 W/m2
14:16 71.2 °F /  21.8 °C 31.5 °F /  -0.3 °C 30.31in /  1026.3hPa Calm   1.0mph /  1.6km/h 23% 0.00in /  0mm 519.0 W/m2
14:22 71.4 °F /  21.9 °C 31.6 °F /  -0.2 °C 30.30in /  1026hPa North 6.0mph /  9.7km/h 10.0mph /  16.1km/h 23% 0.00in /  0mm 501.0 W/m2
14:28 71.2 °F /  21.8 °C 31.5 °F /  -0.3 °C 30.30in /  1026hPa NNW 2.0mph /  3.2km/h 4.0mph /  6.4km/h 23% 0.00in /  0mm 483.0 W/m2
14:34 71.1 °F /  21.7 °C 30.2 °F /  -1 °C 30.30in /  1026hPa NNW 4.9mph /  7.9km/h 7.0mph /  11.3km/h 22% 0.00in /  0mm 469.0 W/m2
14:40 71.1 °F /  21.7 °C 30.2 °F /  -1 °C 30.30in /  1026hPa Calm   1.0mph /  1.6km/h 22% 0.00in /  0mm 454.0 W/m2
14:46 71.1 °F /  21.7 °C 30.2 °F /  -1 °C 30.30in /  1026hPa East 2.9mph /  4.7km/h 5.0mph /  8km/h 22% 0.00in /  0mm 436.0 W/m2
14:53 71.1 °F /  21.7 °C 30.2 °F /  -1 °C 30.30in /  1026hPa NW 4.9mph /  7.9km/h 6.0mph /  9.7km/h 22% 0.00in /  0mm 418.0 W/m2
14:59 70.7 °F /  21.5 °C 30.0 °F /  -1.1 °C 30.30in /  1026hPa Calm   6.0mph /  9.7km/h 22% 0.00in /  0mm 403.0 W/m2
15:04 70.5 °F /  21.4 °C 29.8 °F /  -1.2 °C 30.30in /  1026hPa Calm   4.0mph /  6.4km/h 22% 0.00in /  0mm 390.0 W/m2
15:10 70.3 °F /  21.3 °C 30.7 °F /  -0.7 °C 30.30in /  1026hPa Calm   5.0mph /  8km/h 23% 0.00in /  0mm 364.0 W/m2
15:15 70.3 °F /  21.3 °C 31.8 °F /  -0.1 °C 30.30in /  1026hPa Calm   3.0mph /  4.8km/h 24% 0.00in /  0mm 352.0 W/m2
15:22 70.3 °F /  21.3 °C 29.7 °F /  -1.3 °C 30.30in /  1026hPa Calm   2.0mph /  3.2km/h 22% 0.00in /  0mm 47.0 W/m2
15:30 70.2 °F /  21.2 °C 30.6 °F /  -0.8 °C 30.30in /  1026hPa Calm     23% 0.00in /  0mm 40.0 W/m2
15:35 69.6 °F /  20.9 °C 30.2 °F /  -1 °C 30.30in /  1026hPa Calm   3.0mph /  4.8km/h 23% 0.00in /  0mm 39.0 W/m2
15:42 69.3 °F /  20.7 °C 29.8 °F /  -1.2 °C 30.30in /  1026hPa WSW 4.9mph /  7.9km/h 6.0mph /  9.7km/h 23% 0.00in /  0mm 35.0 W/m2
15:49 69.1 °F /  20.6 °C 29.7 °F /  -1.3 °C 30.30in /  1026hPa Calm   3.0mph /  4.8km/h 23% 0.00in /  0mm 33.0 W/m2
15:55 68.7 °F /  20.4 °C 30.4 °F /  -0.9 °C 30.30in /  1026hPa Calm   1.0mph /  1.6km/h 24% 0.00in /  0mm 30.0 W/m2
16:01 68.4 °F /  20.2 °C 29.1 °F /  -1.6 °C 30.30in /  1026hPa NNW 0.9mph /  1.4km/h 5.0mph /  8km/h 23% 0.00in /  0mm 26.0 W/m2
16:07 68.2 °F /  20.1 °C 28.9 °F /  -1.7 °C 30.30in /  1026hPa NNE 0.9mph /  1.4km/h 4.0mph /  6.4km/h 23% 0.00in /  0mm 23.0 W/m2
16:13 68.2 °F /  20.1 °C 28.9 °F /  -1.7 °C 30.30in /  1026hPa Calm   1.0mph /  1.6km/h 23% 0.00in /  0mm 19.0 W/m2
16:19 67.8 °F /  19.9 °C 28.6 °F /  -1.9 °C 30.30in /  1026hPa Calm   2.0mph /  3.2km/h 23% 0.00in /  0mm 19.0 W/m2
16:25 67.5 °F /  19.7 °C 30.4 °F /  -0.9 °C 30.30in /  1026hPa WSW 0.9mph /  1.4km/h 1.0mph /  1.6km/h 25% 0.00in /  0mm 18.0 W/m2
16:31 67.1 °F /  19.5 °C 30.0 °F /  -1.1 °C 30.30in /  1026hPa Calm     25% 0.00in /  0mm 18.0 W/m2
16:37 66.7 °F /  19.3 °C 30.7 °F /  -0.7 °C 30.30in /  1026hPa Calm   1.0mph /  1.6km/h 26% 0.00in /  0mm 16.0 W/m2
16:44 66.6 °F /  19.2 °C 30.6 °F /  -0.8 °C 30.30in /  1026hPa Calm     26% 0.00in /  0mm 14.0 W/m2
16:50 66.0 °F /  18.9 °C 30.2 °F /  -1 °C 30.31in /  1026.3hPa Calm     26% 0.00in /  0mm 12.0 W/m2
16:56 65.7 °F /  18.7 °C 30.7 °F /  -0.7 °C 30.31in /  1026.3hPa Calm     27% 0.00in /  0mm 11.0 W/m2
17:02 65.1 °F /  18.4 °C 31.3 °F /  -0.4 °C 30.31in /  1026.3hPa Calm     28% 0.00in /  0mm 9.0 W/m2
17:08 64.6 °F /  18.1 °C 31.6 °F /  -0.2 °C 30.31in /  1026.3hPa Calm     29% 0.00in /  0mm 5.0 W/m2
17:14 64.0 °F /  17.8 °C 32.0 °F /  0 °C 30.31in /  1026.3hPa Calm     30% 0.00in /  0mm 0.0 W/m2
17:20 63.3 °F /  17.4 °C 32.2 °F /  0.1 °C 30.31in /  1026.3hPa Calm     31% 0.00in /  0mm 0.0 W/m2
17:23 63.0 °F /  17.2 °C 31.8 °F /  -0.1 °C 30.31in /  1026.3hPa Calm     31% 0.00in /  0mm 0.0 W/m2
17:29 62.2 °F /  16.8 °C 32.0 °F /  0 °C 30.31in /  1026.3hPa Calm     32% 0.00in /  0mm 0.0 W/m2
17:35 61.3 °F /  16.3 °C 31.3 °F /  -0.4 °C 30.32in /  1026.6hPa Calm     32% 0.00in /  0mm 0.0 W/m2
17:40 61.0 °F /  16.1 °C 31.6 °F /  -0.2 °C 30.32in /  1026.6hPa Calm     33% 0.00in /  0mm 0.0 W/m2
17:45 60.1 °F /  15.6 °C 30.9 °F /  -0.6 °C 30.32in /  1026.6hPa Calm     33% 0.00in /  0mm 0.0 W/m2
17:51 59.4 °F /  15.2 °C 31.6 °F /  -0.2 °C 30.32in /  1026.6hPa Calm     35% 0.00in /  0mm 0.0 W/m2
17:57 58.6 °F /  14.8 °C 31.1 °F /  -0.5 °C 30.32in /  1026.6hPa Calm     35% 0.00in /  0mm 0.0 W/m2
18:03 57.9 °F /  14.4 °C 31.1 °F /  -0.5 °C 30.33in /  1027hPa Calm     36% 0.00in /  0mm 0.0 W/m2
18:09 57.2 °F /  14 °C 30.6 °F /  -0.8 °C 30.33in /  1027hPa Calm     36% 0.00in /  0mm 0.0 W/m2
18:15 56.5 °F /  13.6 °C 30.6 °F /  -0.8 °C 30.33in /  1027hPa Calm     37% 0.00in /  0mm 0.0 W/m2
18:22 55.9 °F /  13.3 °C 30.0 °F /  -1.1 °C 30.33in /  1027hPa Calm     37% 0.00in /  0mm 0.0 W/m2
18:28 55.4 °F /  13 °C 30.2 °F /  -1 °C 30.33in /  1027hPa Calm     38% 0.00in /  0mm 0.0 W/m2
18:34 54.9 °F /  12.7 °C 30.4 °F /  -0.9 °C 30.34in /  1027.3hPa Calm     39% 0.00in /  0mm 0.0 W/m2
18:40 54.3 °F /  12.4 °C 29.8 °F /  -1.2 °C 30.34in /  1027.3hPa Calm     39% 0.00in /  0mm 0.0 W/m2
18:46 54.0 °F /  12.2 °C 29.5 °F /  -1.4 °C 30.34in /  1027.3hPa Calm     39% 0.00in /  0mm 0.0 W/m2
18:52 53.4 °F /  11.9 °C 29.1 °F /  -1.6 °C 30.34in /  1027.3hPa Calm   1.0mph /  1.6km/h 39% 0.00in /  0mm 0.0 W/m2
18:58 53.2 °F /  11.8 °C 28.9 °F /  -1.7 °C 30.35in /  1027.7hPa Calm   1.0mph /  1.6km/h 39% 0.00in /  0mm 0.0 W/m2
19:04 53.1 °F /  11.7 °C 28.8 °F /  -1.8 °C 30.35in /  1027.7hPa ENE 0.9mph /  1.4km/h 4.0mph /  6.4km/h 39% 0.00in /  0mm 0.0 W/m2
19:10 52.9 °F /  11.6 °C 29.3 °F /  -1.5 °C 30.35in /  1027.7hPa East 0.9mph /  1.4km/h 3.0mph /  4.8km/h 40% 0.00in /  0mm 0.0 W/m2
19:17 52.9 °F /  11.6 °C 29.3 °F /  -1.5 °C 30.35in /  1027.7hPa Calm   1.0mph /  1.6km/h 40% 0.00in /  0mm 0.0 W/m2
19:23 52.9 °F /  11.6 °C 29.3 °F /  -1.5 °C 30.35in /  1027.7hPa Calm   2.0mph /  3.2km/h 40% 0.00in /  0mm 0.0 W/m2
19:29 52.7 °F /  11.5 °C 29.1 °F /  -1.6 °C 30.35in /  1027.7hPa Calm   3.0mph /  4.8km/h 40% 0.00in /  0mm 0.0 W/m2
19:35 52.5 °F /  11.4 °C 28.9 °F /  -1.7 °C 30.35in /  1027.7hPa SE 0.9mph /  1.4km/h 1.0mph /  1.6km/h 40% 0.00in /  0mm 0.0 W/m2
19:41 52.5 °F /  11.4 °C 28.2 °F /  -2.1 °C 30.35in /  1027.7hPa East 2.0mph /  3.2km/h 2.0mph /  3.2km/h 39% 0.00in /  0mm 0.0 W/m2
19:48 52.5 °F /  11.4 °C 28.2 °F /  -2.1 °C 30.36in /  1028hPa Calm   2.0mph /  3.2km/h 39% 0.00in /  0mm 0.0 W/m2
19:54 52.5 °F /  11.4 °C 28.2 °F /  -2.1 °C 30.36in /  1028hPa Calm   1.0mph /  1.6km/h 39% 0.00in /  0mm 0.0 W/m2
20:00 52.3 °F /  11.3 °C 28.0 °F /  -2.2 °C 30.36in /  1028hPa Calm   2.0mph /  3.2km/h 39% 0.00in /  0mm 0.0 W/m2
20:06 52.2 °F /  11.2 °C 28.6 °F /  -1.9 °C 30.36in /  1028hPa Calm   2.0mph /  3.2km/h 40% 0.00in /  0mm 0.0 W/m2
20:12 52.0 °F /  11.1 °C 28.4 °F /  -2 °C 30.36in /  1028hPa Calm     40% 0.00in /  0mm 0.0 W/m2
20:18 51.6 °F /  10.9 °C 28.0 °F /  -2.2 °C 30.37in /  1028.3hPa Calm     40% 0.00in /  0mm 0.0 W/m2
20:24 51.4 °F /  10.8 °C 27.9 °F /  -2.3 °C 30.37in /  1028.3hPa Calm     40% 0.00in /  0mm 0.0 W/m2
20:30 51.1 °F /  10.6 °C 28.2 °F /  -2.1 °C 30.37in /  1028.3hPa Calm     41% 0.00in /  0mm 0.0 W/m2
20:36 50.7 °F /  10.4 °C 28.4 °F /  -2 °C 30.37in /  1028.3hPa Calm   2.0mph /  3.2km/h 42% 0.00in /  0mm 0.0 W/m2
20:42 50.5 °F /  10.3 °C 28.2 °F /  -2.1 °C 30.37in /  1028.3hPa Calm   1.0mph /  1.6km/h 42% 0.00in /  0mm 0.0 W/m2
20:48 50.5 °F /  10.3 °C 27.7 °F /  -2.4 °C 30.37in /  1028.3hPa Calm   1.0mph /  1.6km/h 41% 0.00in /  0mm 0.0 W/m2
20:54 50.7 °F /  10.4 °C 27.9 °F /  -2.3 °C 30.37in /  1028.3hPa Calm     41% 0.00in /  0mm 0.0 W/m2
21:00 50.4 °F /  10.2 °C 27.5 °F /  -2.5 °C 30.37in /  1028.3hPa Calm     41% 0.00in /  0mm 0.0 W/m2
21:06 49.8 °F /  9.9 °C 27.7 °F /  -2.4 °C 30.37in /  1028.3hPa Calm     42% 0.00in /  0mm 0.0 W/m2
21:12 49.3 °F /  9.6 °C 27.7 °F /  -2.4 °C 30.37in /  1028.3hPa Calm     43% 0.00in /  0mm 0.0 W/m2
21:18 48.7 °F /  9.3 °C 27.9 °F /  -2.3 °C 30.37in /  1028.3hPa Calm     44% 0.00in /  0mm 0.0 W/m2
21:24 48.6 °F /  9.2 °C 27.7 °F /  -2.4 °C 30.37in /  1028.3hPa ESE 0.9mph /  1.4km/h 1.0mph /  1.6km/h 44% 0.00in /  0mm 0.0 W/m2
21:30 48.6 °F /  9.2 °C 27.7 °F /  -2.4 °C 30.37in /  1028.3hPa ESE 2.0mph /  3.2km/h 2.0mph /  3.2km/h 44% 0.00in /  0mm 0.0 W/m2
21:36 48.9 °F /  9.4 °C 28.0 °F /  -2.2 °C 30.37in /  1028.3hPa East 0.9mph /  1.4km/h 3.0mph /  4.8km/h 44% 0.00in /  0mm 0.0 W/m2
21:43 49.1 °F /  9.5 °C 28.0 °F /  -2.2 °C 30.37in /  1028.3hPa Calm   1.0mph /  1.6km/h 44% 0.00in /  0mm 0.0 W/m2
21:49 49.1 °F /  9.5 °C 27.5 °F /  -2.5 °C 30.37in /  1028.3hPa Calm     43% 0.00in /  0mm 0.0 W/m2
21:55 49.1 °F /  9.5 °C 28.0 °F /  -2.2 °C 30.37in /  1028.3hPa Calm     44% 0.00in /  0mm 0.0 W/m2
22:01 49.1 °F /  9.5 °C 28.0 °F /  -2.2 °C 30.37in /  1028.3hPa Calm     44% 0.00in /  0mm 0.0 W/m2
22:07 49.1 °F /  9.5 °C 27.5 °F /  -2.5 °C 30.38in /  1028.7hPa Calm     43% 0.00in /  0mm 0.0 W/m2
22:13 49.1 °F /  9.5 °C 27.5 °F /  -2.5 °C 30.38in /  1028.7hPa Calm   1.0mph /  1.6km/h 43% 0.00in /  0mm 0.0 W/m2
22:19 49.1 °F /  9.5 °C 27.5 °F /  -2.5 °C 30.38in /  1028.7hPa Calm   2.0mph /  3.2km/h 43% 0.00in /  0mm 0.0 W/m2
22:26 48.9 °F /  9.4 °C 27.3 °F /  -2.6 °C 30.38in /  1028.7hPa Calm     43% 0.00in /  0mm 0.0 W/m2
22:34 48.6 °F /  9.2 °C 28.2 °F /  -2.1 °C 30.38in /  1028.7hPa Calm     45% 0.00in /  0mm 0.0 W/m2
22:40 48.2 °F /  9 °C 27.9 °F /  -2.3 °C 30.38in /  1028.7hPa Calm   1.0mph /  1.6km/h 45% 0.00in /  0mm 0.0 W/m2
22:46 48.0 °F /  8.9 °C 27.7 °F /  -2.4 °C 30.38in /  1028.7hPa Calm     45% 0.00in /  0mm 0.0 W/m2
22:52 47.8 °F /  8.8 °C 27.5 °F /  -2.5 °C 30.38in /  1028.7hPa Calm   1.0mph /  1.6km/h 45% 0.00in /  0mm 0.0 W/m2
22:58 47.7 °F /  8.7 °C 27.9 °F /  -2.3 °C 30.38in /  1028.7hPa Calm     46% 0.00in /  0mm 0.0 W/m2
23:05 47.5 °F /  8.6 °C 27.7 °F /  -2.4 °C 30.38in /  1028.7hPa ENE 0.9mph /  1.4km/h 1.0mph /  1.6km/h 46% 0.00in /  0mm 0.0 W/m2
23:11 47.5 °F /  8.6 °C 27.7 °F /  -2.4 °C 30.37in /  1028.3hPa Calm   1.0mph /  1.6km/h 46% 0.00in /  0mm 0.0 W/m2
23:17 47.5 °F /  8.6 °C 27.7 °F /  -2.4 °C 30.37in /  1028.3hPa Calm     46% 0.00in /  0mm 0.0 W/m2
23:23 47.3 °F /  8.5 °C 27.5 °F /  -2.5 °C 30.37in /  1028.3hPa Calm     46% 0.00in /  0mm 0.0 W/m2
23:29 46.9 °F /  8.3 °C 27.7 °F /  -2.4 °C 30.37in /  1028.3hPa Calm     47% 0.00in /  0mm 0.0 W/m2
23:35 46.8 °F /  8.2 °C 28.6 °F /  -1.9 °C 30.37in /  1028.3hPa Calm     49% 0.00in /  0mm 0.0 W/m2
23:41 46.4 °F /  8 °C 27.9 °F /  -2.3 °C 30.37in /  1028.3hPa Calm     48% 0.00in /  0mm 0.0 W/m2
23:48 46.2 °F /  7.9 °C 27.7 °F /  -2.4 °C 30.36in /  1028hPa Calm     48% 0.00in /  0mm 0.0 W/m2
23:54 46.2 °F /  7.9 °C 27.7 °F /  -2.4 °C 30.37in /  1028.3hPa East 1.0mph /  1.6km/h 1.0mph /  1.6km/h 48% 0.00in /  0mm 0.0 W/m2
Olympia, Windhoek, Namibia
Compliments of Weather Underground - 3 mb